createdAt,value
2023-02-15T00:00:10.763Z,0
2023-02-15T00:01:26.000Z,0
2023-02-15T00:02:43.050Z,0
2023-02-15T00:03:58.000Z,0
2023-02-15T00:05:15.000Z,0
2023-02-15T00:06:31.000Z,0
2023-02-15T00:07:47.000Z,0
2023-02-15T00:09:02.795Z,0
2023-02-15T00:10:18.000Z,0
2023-02-15T00:11:34.000Z,0
2023-02-15T00:12:51.000Z,0
2023-02-15T00:14:07.000Z,0
2023-02-15T00:15:23.000Z,0
2023-02-15T00:16:39.000Z,0
2023-02-15T00:17:54.000Z,0
2023-02-15T00:19:09.000Z,0
2023-02-15T00:20:24.000Z,0
2023-02-15T00:21:40.340Z,0
2023-02-15T00:22:56.000Z,0
2023-02-15T00:24:12.000Z,0
2023-02-15T00:25:28.833Z,0
2023-02-15T00:26:44.922Z,0
2023-02-15T00:28:01.070Z,0
2023-02-15T00:29:16.000Z,0
2023-02-15T00:30:33.356Z,0
2023-02-15T00:31:49.500Z,0
2023-02-15T00:33:05.000Z,0
2023-02-15T00:34:21.795Z,0
2023-02-15T00:35:37.000Z,0
2023-02-15T00:36:53.000Z,0
2023-02-15T00:38:09.255Z,0
2023-02-15T00:39:25.000Z,0
2023-02-15T00:40:41.000Z,0
2023-02-15T00:41:57.000Z,0
2023-02-15T00:43:13.000Z,0
2023-02-15T00:44:29.000Z,0
2023-02-15T00:45:46.124Z,0
2023-02-15T00:47:01.298Z,0
2023-02-15T00:48:16.000Z,0
2023-02-15T00:49:31.000Z,0
2023-02-15T00:50:46.000Z,0
2023-02-15T00:52:02.000Z,0
2023-02-15T00:53:19.087Z,0
2023-02-15T00:54:35.000Z,0
2023-02-15T00:55:51.000Z,0
2023-02-15T00:57:07.000Z,0
2023-02-15T00:58:23.676Z,0
2023-02-15T00:59:39.000Z,0
2023-02-15T01:00:55.000Z,0
2023-02-15T01:02:11.000Z,0
2023-02-15T01:03:28.000Z,0
2023-02-15T01:04:44.403Z,0
2023-02-15T01:05:59.000Z,0
2023-02-15T01:07:15.000Z,0
2023-02-15T01:08:31.858Z,0
2023-02-15T01:09:47.000Z,0
2023-02-15T01:11:03.000Z,0
2023-02-15T01:12:20.000Z,0
2023-02-15T01:13:36.000Z,0
2023-02-15T01:14:52.000Z,0
2023-02-15T01:16:07.000Z,0
2023-02-15T01:17:22.000Z,0
2023-02-15T01:18:38.000Z,0
2023-02-15T01:19:54.000Z,0
2023-02-15T01:21:11.000Z,0
2023-02-15T01:22:27.000Z,0
2023-02-15T01:23:43.000Z,0
2023-02-15T01:24:59.000Z,0
2023-02-15T01:26:15.000Z,0
2023-02-15T01:27:31.000Z,0
2023-02-15T01:28:48.000Z,0
2023-02-15T01:30:04.385Z,0
2023-02-15T01:31:20.000Z,0
2023-02-15T01:32:36.685Z,0
2023-02-15T01:33:51.000Z,0
2023-02-15T01:35:07.000Z,0
2023-02-15T01:36:23.000Z,0
2023-02-15T01:37:40.269Z,0
2023-02-15T01:38:56.000Z,0
2023-02-15T01:40:12.560Z,0
2023-02-15T01:41:28.000Z,0
2023-02-15T01:42:43.000Z,0
2023-02-15T01:43:58.000Z,0
2023-02-15T01:45:13.000Z,0
2023-02-15T01:46:29.000Z,0
2023-02-15T01:47:45.532Z,0
2023-02-15T01:49:01.000Z,0
2023-02-15T01:50:17.000Z,0
2023-02-15T01:51:33.000Z,0
2023-02-15T01:52:49.000Z,0
2023-02-15T01:54:06.250Z,0
2023-02-15T01:55:22.000Z,0
2023-02-15T01:56:38.000Z,0
2023-02-15T01:57:54.000Z,0
2023-02-15T01:59:10.833Z,0
2023-02-15T02:00:26.981Z,0
2023-02-15T02:01:42.000Z,0
2023-02-15T02:02:58.000Z,0
2023-02-15T02:04:14.000Z,0
2023-02-15T02:05:30.000Z,0
2023-02-15T02:06:46.724Z,0
2023-02-15T02:08:02.000Z,0
2023-02-15T02:09:18.000Z,0
2023-02-15T02:10:34.000Z,0
2023-02-15T02:11:50.000Z,0
2023-02-15T02:13:05.499Z,0
2023-02-15T02:14:20.000Z,0
2023-02-15T02:15:35.000Z,0
2023-02-15T02:16:51.000Z,0
2023-02-15T02:18:08.127Z,0
2023-02-15T02:19:24.271Z,0
2023-02-15T02:20:40.414Z,0
2023-02-15T02:21:56.000Z,0
2023-02-15T02:23:12.000Z,0
2023-02-15T02:24:28.000Z,0
2023-02-15T02:25:44.000Z,0
2023-02-15T02:27:00.000Z,0
2023-02-15T02:28:17.000Z,0
2023-02-15T02:29:33.000Z,0
2023-02-15T02:30:49.000Z,0
2023-02-15T02:32:04.000Z,0
2023-02-15T02:33:20.898Z,0
2023-02-15T02:34:36.000Z,0
2023-02-15T02:35:52.000Z,0
2023-02-15T02:37:09.330Z,0
2023-02-15T02:38:25.000Z,0
2023-02-15T02:39:41.636Z,0
2023-02-15T02:40:56.000Z,0
2023-02-15T02:42:11.000Z,0
2023-02-15T02:43:26.000Z,0
2023-02-15T02:44:42.000Z,0
2023-02-15T02:45:58.000Z,0
2023-02-15T02:47:14.000Z,0
2023-02-15T02:48:30.000Z,0
2023-02-15T02:49:46.000Z,0
2023-02-15T02:51:02.000Z,0
2023-02-15T02:52:19.165Z,0
2023-02-15T02:53:35.000Z,0
2023-02-15T02:54:51.000Z,0
2023-02-15T02:56:07.000Z,0
2023-02-15T02:57:23.000Z,0
2023-02-15T02:58:39.896Z,0
2023-02-15T02:59:55.000Z,0
2023-02-15T03:01:11.205Z,0
2023-02-15T03:02:27.355Z,0
2023-02-15T03:03:43.000Z,0
2023-02-15T03:04:59.000Z,0
2023-02-15T03:06:15.000Z,0
2023-02-15T03:07:31.000Z,0
2023-02-15T03:08:47.000Z,0
2023-02-15T03:10:03.000Z,0
2023-02-15T03:11:18.000Z,0
2023-02-15T03:12:33.584Z,0
2023-02-15T03:13:48.747Z,0
2023-02-15T03:15:04.000Z,0
2023-02-15T03:16:20.000Z,0
2023-02-15T03:17:36.000Z,0
2023-02-15T03:18:53.000Z,0
2023-02-15T03:20:09.000Z,0
2023-02-15T03:21:25.000Z,0
2023-02-15T03:22:41.000Z,0
2023-02-15T03:23:57.000Z,0
2023-02-15T03:25:13.000Z,0
2023-02-15T03:26:29.000Z,0
2023-02-15T03:27:46.000Z,0
2023-02-15T03:29:02.000Z,0
2023-02-15T03:30:17.000Z,0
2023-02-15T03:31:33.000Z,0
2023-02-15T03:32:49.000Z,0
2023-02-15T03:34:06.100Z,0
2023-02-15T03:35:22.000Z,0
2023-02-15T03:36:38.000Z,0
2023-02-15T03:37:54.000Z,0
2023-02-15T03:39:09.000Z,0
2023-02-15T03:40:24.000Z,0
2023-02-15T03:41:39.000Z,0
2023-02-15T03:42:54.000Z,0
2023-02-15T03:44:10.374Z,0
2023-02-15T03:45:25.000Z,0
2023-02-15T03:46:41.000Z,0
2023-02-15T03:47:57.000Z,0
2023-02-15T03:49:13.000Z,0
2023-02-15T03:50:29.000Z,0
2023-02-15T03:51:46.000Z,0
2023-02-15T03:53:02.000Z,0
2023-02-15T03:54:18.000Z,0
2023-02-15T03:55:34.000Z,0
2023-02-15T03:56:50.855Z,0
2023-02-15T03:58:06.000Z,0
2023-02-15T03:59:22.000Z,0
2023-02-15T04:00:39.000Z,0
2023-02-15T04:01:54.000Z,0
2023-02-15T04:03:10.000Z,0
2023-02-15T04:04:26.000Z,0
2023-02-15T04:05:42.000Z,0
2023-02-15T04:06:58.000Z,0
2023-02-15T04:08:14.000Z,0
2023-02-15T04:09:31.000Z,0
2023-02-15T04:10:46.491Z,0
2023-02-15T04:12:01.658Z,0
2023-02-15T04:13:16.000Z,0
2023-02-15T04:14:31.000Z,0
2023-02-15T04:15:47.000Z,0
2023-02-15T04:17:04.290Z,0
2023-02-15T04:18:20.000Z,0
2023-02-15T04:19:36.000Z,0
2023-02-15T04:20:52.000Z,0
2023-02-15T04:22:08.000Z,0
2023-02-15T04:23:24.000Z,0
2023-02-15T04:24:41.155Z,0
2023-02-15T04:25:57.303Z,0
2023-02-15T04:27:13.000Z,0
2023-02-15T04:28:29.000Z,0
2023-02-15T04:29:45.000Z,0
2023-02-15T04:31:00.898Z,0
2023-02-15T04:32:16.000Z,0
2023-02-15T04:33:32.000Z,0
2023-02-15T04:34:49.340Z,0
2023-02-15T04:36:05.000Z,0
2023-02-15T04:37:21.000Z,0
2023-02-15T04:38:37.000Z,0
2023-02-15T04:39:52.000Z,0
2023-02-15T04:41:07.000Z,0
2023-02-15T04:42:24.000Z,0
2023-02-15T04:43:40.000Z,0
2023-02-15T04:44:56.549Z,0
2023-02-15T04:46:12.000Z,0
2023-02-15T04:47:28.000Z,0
2023-02-15T04:48:44.000Z,0
2023-02-15T04:50:01.134Z,0
2023-02-15T04:51:17.276Z,0
2023-02-15T04:52:33.000Z,0
2023-02-15T04:53:49.566Z,0
2023-02-15T04:55:05.000Z,0
2023-02-15T04:56:21.000Z,0
2023-02-15T04:57:37.026Z,0
2023-02-15T04:58:52.000Z,0
2023-02-15T05:00:09.000Z,0
2023-02-15T05:01:25.000Z,0
2023-02-15T05:02:41.000Z,0
2023-02-15T05:03:57.000Z,0
2023-02-15T05:05:13.899Z,0
2023-02-15T05:06:29.070Z,0
2023-02-15T05:07:44.000Z,0
2023-02-15T05:08:59.000Z,0
2023-02-15T05:10:14.000Z,0
2023-02-15T05:11:30.000Z,0
2023-02-15T05:12:46.000Z,0
2023-02-15T05:14:02.000Z,0
2023-02-15T05:15:19.147Z,0
2023-02-15T05:16:35.000Z,0
2023-02-15T05:17:51.000Z,0
2023-02-15T05:19:07.590Z,0
2023-02-15T05:20:22.000Z,0
2023-02-15T05:21:38.000Z,0
2023-02-15T05:22:54.000Z,0
2023-02-15T05:24:11.189Z,0
2023-02-15T05:25:27.000Z,0
2023-02-15T05:26:43.000Z,0
2023-02-15T05:27:59.000Z,0
2023-02-15T05:29:15.787Z,0
2023-02-15T05:30:31.000Z,0
2023-02-15T05:31:47.000Z,0
2023-02-15T05:33:03.000Z,0
2023-02-15T05:34:20.000Z,0
2023-02-15T05:35:35.000Z,0
2023-02-15T05:36:50.000Z,0
2023-02-15T05:38:05.871Z,0
2023-02-15T05:39:20.000Z,0
2023-02-15T05:40:36.000Z,0
2023-02-15T05:41:53.000Z,0
2023-02-15T05:43:09.464Z,0
2023-02-15T05:44:25.000Z,0
2023-02-15T05:45:41.000Z,0
2023-02-15T05:46:57.000Z,0
2023-02-15T05:48:13.000Z,0
2023-02-15T05:49:29.000Z,0
2023-02-15T05:50:46.000Z,0
2023-02-15T05:52:02.000Z,0
2023-02-15T05:53:18.000Z,0
2023-02-15T05:54:34.000Z,0
2023-02-15T05:55:49.000Z,0
2023-02-15T05:57:05.000Z,0
2023-02-15T05:58:22.000Z,0
2023-02-15T05:59:38.000Z,0
2023-02-15T06:00:54.000Z,0
2023-02-15T06:02:10.000Z,0
2023-02-15T06:03:26.000Z,0
2023-02-15T06:04:41.994Z,0
2023-02-15T06:05:56.000Z,0
2023-02-15T06:07:12.000Z,0
2023-02-15T06:08:27.493Z,0
2023-02-15T06:09:42.659Z,0
2023-02-15T06:10:57.000Z,0
2023-02-15T06:12:13.000Z,0
2023-02-15T06:13:29.000Z,0
2023-02-15T06:14:46.256Z,0
2023-02-15T06:16:02.000Z,0
2023-02-15T06:17:18.000Z,4
2023-02-15T06:18:34.700Z,0
2023-02-15T06:19:50.000Z,0
2023-02-15T06:21:06.000Z,4
2023-02-15T06:22:22.000Z,4
2023-02-15T06:23:39.000Z,4
2023-02-15T06:24:55.000Z,4
2023-02-15T06:26:11.572Z,4
2023-02-15T06:27:26.737Z,8
2023-02-15T06:28:42.000Z,8
2023-02-15T06:29:58.000Z,8
2023-02-15T06:31:14.000Z,12
2023-02-15T06:32:31.000Z,12
2023-02-15T06:33:47.000Z,12
2023-02-15T06:35:03.000Z,16
2023-02-15T06:36:18.000Z,20
2023-02-15T06:37:33.941Z,24
2023-02-15T06:38:49.000Z,24
2023-02-15T06:40:06.000Z,28
2023-02-15T06:41:22.000Z,32
2023-02-15T06:42:38.000Z,40
2023-02-15T06:43:54.000Z,44
2023-02-15T06:45:10.000Z,48
2023-02-15T06:46:26.000Z,52
2023-02-15T06:47:42.000Z,60
2023-02-15T06:48:59.000Z,64
2023-02-15T06:50:15.000Z,72
2023-02-15T06:51:31.000Z,76
2023-02-15T06:52:47.000Z,80
2023-02-15T06:54:02.000Z,84
2023-02-15T06:55:18.000Z,92
2023-02-15T06:56:34.000Z,92
2023-02-15T06:57:51.000Z,96
2023-02-15T06:59:07.000Z,104
2023-02-15T07:00:23.608Z,112
2023-02-15T07:01:39.000Z,116
2023-02-15T07:02:54.000Z,120
2023-02-15T07:04:09.000Z,124
2023-02-15T07:05:25.000Z,128
2023-02-15T07:06:40.000Z,144
2023-02-15T07:07:56.000Z,152
2023-02-15T07:09:12.720Z,148
2023-02-15T07:10:28.000Z,152
2023-02-15T07:11:44.000Z,156
2023-02-15T07:13:00.000Z,156
2023-02-15T07:14:17.000Z,164
2023-02-15T07:15:33.000Z,168
2023-02-15T07:16:49.610Z,176
2023-02-15T07:18:05.759Z,184
2023-02-15T07:19:21.000Z,200
2023-02-15T07:20:37.000Z,204
2023-02-15T07:21:53.000Z,220
2023-02-15T07:23:09.000Z,240
2023-02-15T07:24:25.000Z,272
2023-02-15T07:25:41.656Z,288
2023-02-15T07:26:57.000Z,312
2023-02-15T07:28:13.954Z,316
2023-02-15T07:29:29.000Z,332
2023-02-15T07:30:46.000Z,344
2023-02-15T07:32:01.000Z,368
2023-02-15T07:33:16.582Z,388
2023-02-15T07:34:31.757Z,408
2023-02-15T07:35:46.918Z,420
2023-02-15T07:37:02.000Z,404
2023-02-15T07:38:18.000Z,376
2023-02-15T07:39:35.000Z,388
2023-02-15T07:40:51.504Z,396
2023-02-15T07:42:07.000Z,420
2023-02-15T07:43:23.000Z,424
2023-02-15T07:44:39.000Z,440
2023-02-15T07:45:55.000Z,464
2023-02-15T07:47:12.000Z,508
2023-02-15T07:48:28.388Z,564
2023-02-15T07:49:44.000Z,620
2023-02-15T07:51:00.000Z,648
2023-02-15T07:52:15.000Z,696
2023-02-15T07:53:31.000Z,652
2023-02-15T07:54:48.137Z,612
2023-02-15T07:56:04.000Z,636
2023-02-15T07:57:20.000Z,660
2023-02-15T07:58:36.000Z,684
2023-02-15T07:59:52.000Z,744
2023-02-15T08:01:07.903Z,812
2023-02-15T08:02:22.000Z,812
2023-02-15T08:03:38.000Z,784
2023-02-15T08:04:53.000Z,776
2023-02-15T08:06:09.546Z,832
2023-02-15T08:07:25.000Z,872
2023-02-15T08:08:41.000Z,916
2023-02-15T08:09:57.991Z,960
2023-02-15T08:11:14.136Z,968
2023-02-15T08:12:30.000Z,948
2023-02-15T08:13:46.000Z,968
2023-02-15T08:15:02.580Z,1004
2023-02-15T08:16:18.000Z,988
2023-02-15T08:17:34.000Z,948
2023-02-15T08:18:50.000Z,984
2023-02-15T08:20:06.000Z,988
2023-02-15T08:21:22.000Z,996
2023-02-15T08:22:38.000Z,1000
2023-02-15T08:23:54.000Z,1016
2023-02-15T08:25:10.000Z,1048
2023-02-15T08:26:26.000Z,1064
2023-02-15T08:27:42.000Z,964
2023-02-15T08:28:58.000Z,864
2023-02-15T08:30:14.000Z,920
2023-02-15T08:31:29.000Z,920
2023-02-15T08:32:44.000Z,820
2023-02-15T08:33:59.000Z,756
2023-02-15T08:35:14.000Z,744
2023-02-15T08:36:29.000Z,756
2023-02-15T08:37:46.000Z,728
2023-02-15T08:39:02.000Z,748
2023-02-15T08:40:18.000Z,740
2023-02-15T08:41:34.000Z,776
2023-02-15T08:42:50.000Z,760
2023-02-15T08:44:06.000Z,772
2023-02-15T08:45:23.000Z,816
2023-02-15T08:46:39.000Z,872
2023-02-15T08:47:55.000Z,876
2023-02-15T08:49:11.692Z,900
2023-02-15T08:50:27.000Z,968
2023-02-15T08:51:43.000Z,1024
2023-02-15T08:52:58.000Z,964
2023-02-15T08:54:15.000Z,912
2023-02-15T08:55:31.000Z,852
2023-02-15T08:56:47.000Z,816
2023-02-15T08:58:03.000Z,832
2023-02-15T08:59:19.000Z,924
2023-02-15T09:00:35.000Z,976
2023-02-15T09:01:50.000Z,988
2023-02-15T09:03:06.371Z,1052
2023-02-15T09:04:22.000Z,1068
2023-02-15T09:05:38.000Z,1092
2023-02-15T09:06:54.812Z,1140
2023-02-15T09:08:10.000Z,1120
2023-02-15T09:09:26.000Z,1188
2023-02-15T09:10:43.000Z,1220
2023-02-15T09:11:59.000Z,1224
2023-02-15T09:13:15.000Z,1180
2023-02-15T09:14:31.000Z,1256
2023-02-15T09:15:47.000Z,1268
2023-02-15T09:17:04.011Z,1292
2023-02-15T09:18:19.000Z,1260
2023-02-15T09:19:35.000Z,1232
2023-02-15T09:20:51.000Z,1276
2023-02-15T09:22:07.000Z,1292
2023-02-15T09:23:23.000Z,1364
2023-02-15T09:24:39.000Z,1412
2023-02-15T09:25:55.000Z,1456
2023-02-15T09:27:11.000Z,1440
2023-02-15T09:28:27.000Z,1424
2023-02-15T09:29:42.000Z,1480
2023-02-15T09:30:57.000Z,1500
2023-02-15T09:32:12.875Z,1444
2023-02-15T09:33:27.000Z,1356
2023-02-15T09:34:43.226Z,1320
2023-02-15T09:35:59.000Z,1312
2023-02-15T09:37:15.516Z,1292
2023-02-15T09:38:31.000Z,1304
2023-02-15T09:39:47.000Z,1384
2023-02-15T09:41:03.000Z,1444
2023-02-15T09:42:19.000Z,1504
2023-02-15T09:43:36.000Z,1500
2023-02-15T09:44:52.000Z,1520
2023-02-15T09:46:08.000Z,1572
2023-02-15T09:47:24.696Z,1640
2023-02-15T09:48:40.000Z,1712
2023-02-15T09:49:56.000Z,1692
2023-02-15T09:51:11.000Z,1660
2023-02-15T09:52:28.000Z,1664
2023-02-15T09:53:44.000Z,1656
2023-02-15T09:55:00.000Z,1712
2023-02-15T09:56:16.000Z,1748
2023-02-15T09:57:32.000Z,1720
2023-02-15T09:58:48.000Z,1744
2023-02-15T10:00:03.000Z,1744
2023-02-15T10:01:19.000Z,1728
2023-02-15T10:02:35.520Z,1776
2023-02-15T10:03:50.000Z,1828
2023-02-15T10:05:05.000Z,1720
2023-02-15T10:06:21.000Z,1624
2023-02-15T10:07:37.000Z,1796
2023-02-15T10:08:54.000Z,1920
2023-02-15T10:10:10.000Z,1888
2023-02-15T10:11:26.000Z,1864
2023-02-15T10:12:42.733Z,1792
2023-02-15T10:13:58.000Z,1776
2023-02-15T10:15:14.000Z,1808
2023-02-15T10:17:47.000Z,1684
2023-02-15T10:19:03.000Z,1688
2023-02-15T10:20:19.000Z,1756
2023-02-15T10:21:34.000Z,1844
2023-02-15T10:22:50.000Z,1812
2023-02-15T10:25:23.000Z,1852
2023-02-15T10:26:38.000Z,1812
2023-02-15T10:27:53.000Z,1804
2023-02-15T10:29:09.000Z,1840
2023-02-15T10:30:25.000Z,1916
2023-02-15T10:31:41.000Z,1888
2023-02-15T10:32:57.000Z,1864
2023-02-15T10:34:14.000Z,1880
2023-02-15T10:35:30.000Z,1824
2023-02-15T10:36:46.000Z,1796
2023-02-15T10:38:02.000Z,1852
2023-02-15T10:39:18.000Z,1976
2023-02-15T10:40:34.087Z,2072
2023-02-15T10:41:49.000Z,2076
2023-02-15T10:43:05.000Z,2020
2023-02-15T10:44:21.000Z,2044
2023-02-15T10:45:37.000Z,1972
2023-02-15T10:46:53.000Z,1964
2023-02-15T10:48:09.000Z,1948
2023-02-15T10:49:25.000Z,1900
2023-02-15T10:50:42.000Z,1796
2023-02-15T10:51:58.000Z,1776
2023-02-15T10:53:14.000Z,1564
2023-02-15T10:54:30.000Z,1820
2023-02-15T10:57:02.000Z,1924
2023-02-15T10:58:17.000Z,1956
2023-02-15T10:59:34.000Z,1944
2023-02-15T11:00:50.000Z,1912
2023-02-15T11:02:06.000Z,1948
2023-02-15T11:03:22.000Z,1996
2023-02-15T11:04:38.000Z,1944
2023-02-15T11:05:54.000Z,1884
2023-02-15T11:07:10.000Z,1872
2023-02-15T11:08:26.000Z,1740
2023-02-15T11:09:41.000Z,1564
2023-02-15T11:10:57.000Z,1448
2023-02-15T11:12:13.000Z,1672
2023-02-15T11:13:29.981Z,1756
2023-02-15T11:14:45.000Z,1756
2023-02-15T11:16:02.000Z,1680
2023-02-15T11:17:17.000Z,1480
2023-02-15T11:18:32.000Z,1536
2023-02-15T11:19:48.000Z,1468
2023-02-15T11:21:04.000Z,1332
2023-02-15T11:22:21.046Z,1248
2023-02-15T11:23:36.000Z,1524
2023-02-15T11:24:53.000Z,1764
2023-02-15T11:26:09.000Z,1876
2023-02-15T11:27:25.000Z,1808
2023-02-15T11:28:41.000Z,1804
2023-02-15T11:29:57.000Z,1860
2023-02-15T11:31:13.000Z,1864
2023-02-15T11:32:30.000Z,1876
2023-02-15T11:33:46.000Z,1844
2023-02-15T11:35:01.000Z,1944
2023-02-15T11:36:17.000Z,1908
2023-02-15T11:37:33.000Z,2000
2023-02-15T11:38:49.000Z,2040
2023-02-15T11:40:05.000Z,2048
2023-02-15T11:41:22.266Z,2000
2023-02-15T11:42:38.000Z,1940
2023-02-15T11:43:53.000Z,1684
2023-02-15T11:45:08.000Z,1508
2023-02-15T11:46:24.000Z,1812
2023-02-15T11:47:40.000Z,1584
2023-02-15T11:48:56.000Z,1616
2023-02-15T11:50:13.000Z,1696
2023-02-15T11:51:29.000Z,1696
2023-02-15T11:52:45.000Z,1660
2023-02-15T11:54:01.000Z,1628
2023-02-15T11:55:17.000Z,1644
2023-02-15T11:56:34.071Z,1668
2023-02-15T11:57:49.000Z,1748
2023-02-15T11:59:06.000Z,1840
2023-02-15T12:00:22.000Z,1684
2023-02-15T12:01:37.000Z,1472
2023-02-15T12:02:53.000Z,1516
2023-02-15T12:04:09.000Z,1368
2023-02-15T12:05:25.000Z,1512
2023-02-15T12:06:42.000Z,1504
2023-02-15T12:07:58.000Z,1536
2023-02-15T12:09:14.000Z,1584
2023-02-15T12:10:29.000Z,1680
2023-02-15T12:11:44.000Z,1676
2023-02-15T12:12:59.000Z,1696
2023-02-15T12:14:15.000Z,1652
2023-02-15T12:15:31.000Z,1552
2023-02-15T12:16:47.532Z,1676
2023-02-15T12:18:03.000Z,1944
2023-02-15T12:19:19.000Z,1924
2023-02-15T12:20:35.967Z,1772
2023-02-15T12:21:51.000Z,1760
2023-02-15T12:23:08.000Z,1748
2023-02-15T12:24:24.000Z,1668
2023-02-15T12:25:40.553Z,1648
2023-02-15T12:26:56.000Z,1632
2023-02-15T12:28:12.000Z,1600
2023-02-15T12:29:28.993Z,1588
2023-02-15T12:30:43.000Z,1620
2023-02-15T12:32:00.000Z,1528
2023-02-15T12:33:16.000Z,1428
2023-02-15T12:34:32.000Z,1360
2023-02-15T12:35:48.000Z,1548
2023-02-15T12:37:04.000Z,1532
2023-02-15T12:38:20.000Z,1624
2023-02-15T12:39:36.217Z,1796
2023-02-15T12:40:51.000Z,1736
2023-02-15T12:42:07.000Z,1760
2023-02-15T12:43:23.000Z,1696
2023-02-15T12:44:39.000Z,1544
2023-02-15T12:45:54.000Z,1608
2023-02-15T12:47:09.000Z,1580
2023-02-15T12:48:26.000Z,1764
2023-02-15T12:49:42.000Z,1588
2023-02-15T12:50:58.000Z,1424
2023-02-15T12:52:14.000Z,1552
2023-02-15T12:53:30.000Z,1536
2023-02-15T12:54:46.000Z,1652
2023-02-15T12:56:02.000Z,1860
2023-02-15T12:57:19.000Z,1436
2023-02-15T12:58:35.000Z,1436
2023-02-15T12:59:51.000Z,1400
2023-02-15T13:01:07.000Z,1536
2023-02-15T13:02:23.000Z,1340
2023-02-15T13:04:55.229Z,1164
2023-02-15T13:06:11.000Z,1040
2023-02-15T13:07:27.521Z,1068
2023-02-15T13:08:43.671Z,1092
2023-02-15T13:09:59.000Z,1144
2023-02-15T13:11:15.000Z,1336
2023-02-15T13:12:31.000Z,1248
2023-02-15T13:13:48.000Z,1208
2023-02-15T13:15:04.000Z,1360
2023-02-15T13:16:20.000Z,1460
2023-02-15T13:17:36.000Z,1408
2023-02-15T13:18:52.000Z,1424
2023-02-15T13:20:07.000Z,1316
2023-02-15T13:21:23.000Z,1472
2023-02-15T13:22:40.000Z,1396
2023-02-15T13:23:55.000Z,1348
2023-02-15T13:25:10.643Z,1328
2023-02-15T13:26:25.000Z,1396
2023-02-15T13:27:40.000Z,1308
2023-02-15T13:28:56.000Z,1336
2023-02-15T13:30:13.000Z,1264
2023-02-15T13:31:29.000Z,1264
2023-02-15T13:32:45.000Z,1352
2023-02-15T13:34:01.711Z,1268
2023-02-15T13:35:17.000Z,1300
2023-02-15T13:36:33.000Z,1284
2023-02-15T13:37:50.150Z,1220
2023-02-15T13:39:06.000Z,1332
2023-02-15T13:40:22.000Z,1284
2023-02-15T13:41:38.000Z,1248
2023-02-15T13:42:54.747Z,1184
2023-02-15T13:44:09.000Z,1344
2023-02-15T13:45:25.000Z,1256
2023-02-15T13:46:42.204Z,1112
2023-02-15T13:47:58.351Z,1240
2023-02-15T13:49:13.000Z,1348
2023-02-15T13:50:29.000Z,1356
2023-02-15T13:51:45.000Z,1332
2023-02-15T13:53:00.000Z,1532
2023-02-15T13:54:16.143Z,1360
2023-02-15T13:55:32.300Z,1152
2023-02-15T13:56:48.000Z,1108
2023-02-15T13:58:03.000Z,1060
2023-02-15T13:59:18.000Z,912
2023-02-15T14:00:34.926Z,804
2023-02-15T14:01:50.000Z,788
2023-02-15T14:03:06.000Z,768
2023-02-15T14:04:23.358Z,788
2023-02-15T14:05:39.000Z,800
2023-02-15T14:06:55.000Z,772
2023-02-15T14:08:11.000Z,720
2023-02-15T14:09:27.000Z,716
2023-02-15T14:10:44.100Z,732
2023-02-15T14:12:00.000Z,752
2023-02-15T14:13:16.000Z,820
2023-02-15T14:14:32.000Z,900
2023-02-15T14:15:47.000Z,948
2023-02-15T14:17:03.000Z,964
2023-02-15T14:18:19.000Z,1012
2023-02-15T14:19:35.000Z,1008
2023-02-15T14:20:52.000Z,1016
2023-02-15T14:22:08.000Z,940
2023-02-15T14:23:24.000Z,956
2023-02-15T14:24:39.000Z,952
2023-02-15T14:25:54.000Z,988
2023-02-15T14:27:09.000Z,1012
2023-02-15T14:28:25.000Z,1056
2023-02-15T14:29:41.000Z,1080
2023-02-15T14:30:57.000Z,1060
2023-02-15T14:32:13.000Z,1012
2023-02-15T14:33:29.000Z,1000
2023-02-15T14:34:45.000Z,1056
2023-02-15T14:36:01.000Z,996
2023-02-15T14:37:18.000Z,980
2023-02-15T14:38:34.000Z,952
2023-02-15T14:39:50.000Z,900
2023-02-15T14:41:06.721Z,832
2023-02-15T14:42:22.000Z,816
2023-02-15T14:43:38.000Z,836
2023-02-15T14:44:53.000Z,828
2023-02-15T14:46:10.333Z,784
2023-02-15T14:47:26.481Z,740
2023-02-15T14:48:42.622Z,680
2023-02-15T14:49:58.000Z,652
2023-02-15T14:51:14.000Z,612
2023-02-15T14:52:30.000Z,592
2023-02-15T14:53:46.000Z,600
2023-02-15T14:55:01.402Z,568
2023-02-15T14:56:17.000Z,556
2023-02-15T14:57:33.000Z,544
2023-02-15T14:58:49.000Z,556
2023-02-15T15:00:05.987Z,556
2023-02-15T15:01:21.000Z,520
2023-02-15T15:02:38.000Z,528
2023-02-15T15:03:54.432Z,544
2023-02-15T15:05:10.000Z,548
2023-02-15T15:06:26.000Z,528
2023-02-15T15:07:42.000Z,560
2023-02-15T15:08:58.000Z,528
2023-02-15T15:10:14.000Z,492
2023-02-15T15:11:30.328Z,488
2023-02-15T15:12:46.000Z,504
2023-02-15T15:14:02.000Z,512
2023-02-15T15:15:18.000Z,520
2023-02-15T15:16:34.000Z,564
2023-02-15T15:17:50.000Z,568
2023-02-15T15:19:06.000Z,532
2023-02-15T15:20:23.000Z,512
2023-02-15T15:21:38.000Z,500
2023-02-15T15:22:53.000Z,480
2023-02-15T15:24:08.000Z,484
2023-02-15T15:25:24.000Z,456
2023-02-15T15:26:40.184Z,464
2023-02-15T15:27:56.000Z,452
2023-02-15T15:29:12.000Z,452
2023-02-15T15:30:28.622Z,436
2023-02-15T15:31:44.000Z,412
2023-02-15T15:33:00.000Z,420
2023-02-15T15:34:16.000Z,404
2023-02-15T15:35:32.000Z,388
2023-02-15T15:36:49.000Z,400
2023-02-15T15:38:05.000Z,380
2023-02-15T15:39:21.000Z,364
2023-02-15T15:40:37.000Z,360
2023-02-15T15:41:53.000Z,340
2023-02-15T15:43:08.000Z,328
2023-02-15T15:44:25.000Z,292
2023-02-15T15:45:41.000Z,268
2023-02-15T15:46:57.000Z,240
2023-02-15T15:48:13.694Z,224
2023-02-15T15:49:29.000Z,216
2023-02-15T15:50:45.020Z,200
2023-02-15T15:52:00.177Z,184
2023-02-15T15:53:16.000Z,176
2023-02-15T15:54:32.000Z,168
2023-02-15T15:55:47.000Z,160
2023-02-15T15:57:02.000Z,148
2023-02-15T15:58:18.000Z,140
2023-02-15T15:59:34.000Z,140
2023-02-15T16:00:51.000Z,140
2023-02-15T16:02:07.000Z,136
2023-02-15T16:03:23.000Z,124
2023-02-15T16:04:39.000Z,112
2023-02-15T16:05:55.000Z,112
2023-02-15T16:07:11.000Z,104
2023-02-15T16:08:27.000Z,96
2023-02-15T16:09:44.000Z,92
2023-02-15T16:11:00.000Z,88
2023-02-15T16:12:16.000Z,76
2023-02-15T16:13:31.000Z,68
2023-02-15T16:14:47.000Z,60
2023-02-15T16:16:03.000Z,52
2023-02-15T16:17:19.000Z,48
2023-02-15T16:18:36.000Z,44
2023-02-15T16:19:52.459Z,40
2023-02-15T16:21:08.000Z,40
2023-02-15T16:22:23.000Z,36
2023-02-15T16:23:38.000Z,28
2023-02-15T16:24:54.000Z,28
2023-02-15T16:26:11.000Z,24
2023-02-15T16:27:27.000Z,20
2023-02-15T16:28:43.000Z,20
2023-02-15T16:29:59.000Z,20
2023-02-15T16:31:15.000Z,16
2023-02-15T16:32:31.000Z,20
2023-02-15T16:33:46.000Z,20
2023-02-15T16:35:02.288Z,12
2023-02-15T16:36:18.000Z,12
2023-02-15T16:37:34.000Z,12
2023-02-15T16:38:50.000Z,8
2023-02-15T16:40:06.000Z,8
2023-02-15T16:41:22.000Z,8
2023-02-15T16:42:38.000Z,4
2023-02-15T16:43:55.000Z,4
2023-02-15T16:45:11.000Z,4
2023-02-15T16:46:27.000Z,4
2023-02-15T16:47:43.000Z,0
2023-02-15T16:48:59.000Z,4
2023-02-15T16:50:15.000Z,4
2023-02-15T16:51:30.000Z,0
2023-02-15T16:52:47.355Z,0
2023-02-15T16:54:03.000Z,0
2023-02-15T16:55:19.000Z,0
2023-02-15T16:56:35.000Z,0
2023-02-15T16:57:51.000Z,0
2023-02-15T16:59:07.000Z,0
2023-02-15T17:00:23.000Z,0
2023-02-15T17:01:38.000Z,0
2023-02-15T17:02:54.000Z,0
2023-02-15T17:04:10.000Z,0
2023-02-15T17:05:26.000Z,0
2023-02-15T17:06:42.000Z,0
2023-02-15T17:07:58.000Z,0
2023-02-15T17:09:15.000Z,0
2023-02-15T17:10:31.000Z,0
2023-02-15T17:11:47.000Z,0
2023-02-15T17:13:03.000Z,0
2023-02-15T17:14:19.000Z,0
2023-02-15T17:15:35.000Z,0
2023-02-15T17:16:51.000Z,0
2023-02-15T17:18:07.000Z,0
2023-02-15T17:19:23.000Z,0
2023-02-15T17:20:39.000Z,0
2023-02-15T17:21:55.000Z,0
2023-02-15T17:23:11.886Z,0
2023-02-15T17:24:27.000Z,0
2023-02-15T17:25:43.000Z,0
2023-02-15T17:26:59.000Z,0
2023-02-15T17:28:14.000Z,0
2023-02-15T17:29:29.000Z,0
2023-02-15T17:30:44.000Z,0
2023-02-15T17:32:00.000Z,0
2023-02-15T17:33:16.000Z,0
2023-02-15T17:34:33.000Z,0
2023-02-15T17:35:49.000Z,0
2023-02-15T17:37:04.000Z,0
2023-02-15T17:38:19.000Z,0
2023-02-15T17:40:51.000Z,0
2023-02-15T17:42:08.000Z,0
2023-02-15T17:43:24.396Z,0
2023-02-15T17:44:40.000Z,0
2023-02-15T17:45:56.000Z,0
2023-02-15T17:47:12.000Z,0
2023-02-15T17:48:28.000Z,0
2023-02-15T17:49:44.000Z,0
2023-02-15T17:51:01.000Z,0
2023-02-15T17:52:17.000Z,0
2023-02-15T17:53:33.565Z,0
2023-02-15T17:54:48.000Z,0